Amiret, Minnesota
Current Conditions -  °F | °C
As of 11:12 PM on Monday 20 Oct 2014 (Local Time) from KTKC Reporting Station
Clear Clear  
Wind Chill: 44°   Ceiling: Unl
Heat Index: 46°   Visibility: 10mi
Dew Point: 38°   Wind: 5mph
Humidity: 71%   Direction: 240°WSW
Pressure: 30.08"   Gusts: NA
Location:  44.2253°N, 95.6512°W
Report Text: KTKC 210412Z AUTO 24004KT 10SM CLR 08/03 A3008 RMK AO2 T00800031
Loading
Personal Weather Stations






























Interactive Weather Map
Tropical Storm Tracking
New forecast layout! Learn more

10-Day Weather Forecast

Advertisements
Track Severe Weather on mobile